createdAt,value
2018-11-20T00:03:52.686Z,2.92
2018-11-20T00:06:41.743Z,2.84
2018-11-20T00:09:31.841Z,2.80
2018-11-20T00:12:05.409Z,2.73
2018-11-20T00:14:52.903Z,2.74
2018-11-20T00:17:21.829Z,2.68
2018-11-20T00:20:14.289Z,2.67
2018-11-20T00:23:08.903Z,2.68
2018-11-20T00:26:10.694Z,2.66
2018-11-20T00:29:16.418Z,2.67
2018-11-20T00:34:17.608Z,2.67
2018-11-20T00:36:54.349Z,2.71
2018-11-20T00:39:30.132Z,2.71
2018-11-20T00:44:56.710Z,2.77
2018-11-20T00:47:46.440Z,2.78
2018-11-20T00:50:40.347Z,2.76
2018-11-20T00:56:53.185Z,2.76
2018-11-20T00:59:58.040Z,2.76
2018-11-20T01:02:49.074Z,2.64
2018-11-20T01:05:35.453Z,2.61
2018-11-20T01:08:26.916Z,2.61
2018-11-20T01:11:09.682Z,2.58
2018-11-20T01:13:46.387Z,2.46
2018-11-20T01:16:25.811Z,2.52
2018-11-20T01:21:45.151Z,2.46
2018-11-20T01:24:33.253Z,2.39
2018-11-20T01:27:37.034Z,2.43
2018-11-20T01:30:25.904Z,2.49
2018-11-20T01:33:17.681Z,2.53
2018-11-20T01:36:04.375Z,2.57
2018-11-20T01:39:02.412Z,2.63
2018-11-20T01:41:40.892Z,2.62
2018-11-20T01:44:30.989Z,2.65
2018-11-20T01:49:52.780Z,2.72
2018-11-20T01:52:46.256Z,2.79
2018-11-20T01:55:28.439Z,2.77
2018-11-20T01:58:11.371Z,2.80
2018-11-20T02:01:01.272Z,2.82
2018-11-20T02:06:23.577Z,2.82
2018-11-20T02:09:15.895Z,2.81
2018-11-20T02:12:09.279Z,2.83
2018-11-20T02:14:57.423Z,2.81
2018-11-20T02:17:26.152Z,2.88
2018-11-20T02:20:18.187Z,2.82
2018-11-20T02:28:14.372Z,2.69
2018-11-20T02:33:24.078Z,2.71
2018-11-20T02:35:56.484Z,2.69
2018-11-20T02:38:45.536Z,2.71
2018-11-20T02:41:42.271Z,2.69
2018-11-20T02:44:22.615Z,2.68
2018-11-20T02:47:17.769Z,2.67
2018-11-20T02:50:08.239Z,2.73
2018-11-20T02:53:01.934Z,2.73
2018-11-20T02:55:31.292Z,2.71
2018-11-20T02:58:22.617Z,2.77
2018-11-20T03:01:12.798Z,2.79
2018-11-20T03:04:05.297Z,2.81
2018-11-20T03:06:55.945Z,2.81
2018-11-20T03:09:44.185Z,2.84
2018-11-20T03:12:31.700Z,2.84
2018-11-20T03:15:22.939Z,2.84
2018-11-20T03:18:20.480Z,2.85
2018-11-20T03:21:12.572Z,2.87
2018-11-20T03:24:16.396Z,2.90
2018-11-20T03:30:49.177Z,2.88
2018-11-20T03:36:14.215Z,2.94
2018-11-20T03:39:18.131Z,2.94
2018-11-20T03:41:51.564Z,2.97
2018-11-20T03:44:30.608Z,2.98
2018-11-20T03:47:10.854Z,3.00
2018-11-20T03:50:08.771Z,2.99
2018-11-20T03:52:54.133Z,2.95
2018-11-20T03:55:44.296Z,3.00
2018-11-20T03:58:32.503Z,3.07
2018-11-20T04:01:22.871Z,3.02
2018-11-20T04:04:03.867Z,3.01
2018-11-20T04:06:46.352Z,3.03
2018-11-20T04:09:50.563Z,3.01
2018-11-20T04:15:08.456Z,3.05
2018-11-20T04:20:35.984Z,3.07
2018-11-20T04:25:59.224Z,3.12
2018-11-20T04:28:40.434Z,3.11
2018-11-20T04:32:34.336Z,3.12
2018-11-20T04:35:24.094Z,3.09
2018-11-20T04:38:15.474Z,3.14
2018-11-20T04:40:44.958Z,3.07
2018-11-20T04:43:30.365Z,3.14
2018-11-20T04:46:30.943Z,3.15
2018-11-20T04:52:08.846Z,3.10
2018-11-20T04:54:52.515Z,3.13
2018-11-20T04:57:50.176Z,3.17
2018-11-20T05:00:39.464Z,3.19
2018-11-20T05:03:40.101Z,3.17
2018-11-20T05:06:21.103Z,3.19
2018-11-20T05:09:20.536Z,3.16
2018-11-20T05:12:03.121Z,3.17
2018-11-20T05:14:55.382Z,3.18
2018-11-20T05:17:33.142Z,3.17
2018-11-20T05:20:38.424Z,3.18
2018-11-20T05:23:36.213Z,3.21
2018-11-20T05:26:27.848Z,3.18
2018-11-20T05:29:16.729Z,3.25
2018-11-20T05:32:21.729Z,3.25
2018-11-20T05:35:03.042Z,3.26
2018-11-20T05:38:12.476Z,3.20
2018-11-20T05:41:01.074Z,3.28
2018-11-20T05:43:54.015Z,3.20
2018-11-20T05:47:01.368Z,3.20
2018-11-20T05:49:50.240Z,3.21
2018-11-20T05:52:41.611Z,3.22
2018-11-20T05:55:37.066Z,3.26
2018-11-20T05:58:37.567Z,3.40
2018-11-20T06:01:19.390Z,3.34
2018-11-20T06:04:05.132Z,3.34
2018-11-20T06:06:52.751Z,3.28
2018-11-20T06:09:41.808Z,3.32
2018-11-20T06:12:29.772Z,3.36
2018-11-20T06:15:20.554Z,3.35
2018-11-20T06:17:53.227Z,3.30
2018-11-20T06:20:33.192Z,3.31
2018-11-20T06:23:23.691Z,3.30
2018-11-20T06:26:11.217Z,3.25
2018-11-20T06:29:15.229Z,3.25
2018-11-20T06:31:55.811Z,3.27
2018-11-20T06:34:43.238Z,3.27
2018-11-20T06:37:35.324Z,3.22
2018-11-20T06:40:25.043Z,3.20
2018-11-20T06:42:54.223Z,3.27
2018-11-20T06:45:44.954Z,3.29
2018-11-20T06:48:32.363Z,3.22
2018-11-20T06:51:26.516Z,3.27
2018-11-20T06:54:17.113Z,3.26
2018-11-20T06:59:33.353Z,3.22
2018-11-20T07:02:24.467Z,3.26
2018-11-20T07:05:15.339Z,3.20
2018-11-20T07:08:05.668Z,3.26
2018-11-20T07:10:54.671Z,3.26
2018-11-20T07:14:07.287Z,3.29
2018-11-20T07:17:11.321Z,3.28
2018-11-20T07:20:00.931Z,3.31
2018-11-20T07:22:44.594Z,3.29
2018-11-20T07:25:51.027Z,3.36
2018-11-20T07:28:58.728Z,3.28
2018-11-20T07:34:23.013Z,3.33
2018-11-20T07:37:18.700Z,3.33
2018-11-20T07:40:08.963Z,3.39
2018-11-20T07:42:43.422Z,3.39
2018-11-20T07:45:27.886Z,3.42
2018-11-20T07:48:20.390Z,3.46
2018-11-20T07:51:12.040Z,3.48
2018-11-20T07:54:13.136Z,3.51
2018-11-20T07:56:46.411Z,3.51
2018-11-20T07:59:32.016Z,3.59
2018-11-20T08:04:56.261Z,3.58
2018-11-20T08:07:44.128Z,3.62
2018-11-20T08:10:45.211Z,3.68
2018-11-20T08:13:27.296Z,3.63
2018-11-20T08:16:21.445Z,3.71
2018-11-20T08:21:48.260Z,3.74
2018-11-20T08:24:35.499Z,3.82
2018-11-20T08:27:25.414Z,3.77
2018-11-20T08:29:54.932Z,3.83
2018-11-20T08:32:42.736Z,3.89
2018-11-20T08:35:25.644Z,3.93
2018-11-20T08:38:17.664Z,3.98
2018-11-20T08:41:09.563Z,3.93
2018-11-20T08:46:16.186Z,4.02
2018-11-20T08:51:32.396Z,4.12
2018-11-20T08:54:18.795Z,4.12
2018-11-20T08:56:52.749Z,4.22
2018-11-20T08:59:42.147Z,4.23
2018-11-20T09:02:37.003Z,4.29
2018-11-20T09:05:31.342Z,4.35
2018-11-20T09:10:54.599Z,4.42
2018-11-20T09:14:01.955Z,4.48
2018-11-20T09:16:59.873Z,4.45
2018-11-20T09:19:51.710Z,4.54
2018-11-20T09:22:52.428Z,4.57
2018-11-20T09:25:29.223Z,4.62
2018-11-20T09:28:23.012Z,4.70
2018-11-20T09:31:14.737Z,4.70
2018-11-20T09:36:25.257Z,4.85
2018-11-20T09:39:17.276Z,4.86
2018-11-20T09:42:07.507Z,4.90
2018-11-20T09:44:55.394Z,4.98
2018-11-20T09:47:45.455Z,5.02
2018-11-20T09:50:17.631Z,5.03
2018-11-20T09:52:54.192Z,5.01
2018-11-20T09:55:44.574Z,5.05
2018-11-20T09:58:33.494Z,5.06
2018-11-20T10:01:23.762Z,5.06
2018-11-20T10:06:47.979Z,5.12
2018-11-20T10:09:22.102Z,5.19
2018-11-20T10:12:25.070Z,5.12
2018-11-20T10:15:04.836Z,5.21
2018-11-20T10:18:05.328Z,5.20
2018-11-20T10:21:00.615Z,5.20
2018-11-20T10:23:51.214Z,5.26
2018-11-20T10:26:27.814Z,5.34
2018-11-20T10:28:55.751Z,5.26
2018-11-20T10:31:43.792Z,5.29
2018-11-20T10:34:40.399Z,5.29
2018-11-20T10:37:22.131Z,5.32
2018-11-20T10:40:15.503Z,5.29
2018-11-20T10:42:52.394Z,5.28
2018-11-20T10:45:39.198Z,5.35
2018-11-20T10:48:31.419Z,5.38
2018-11-20T10:53:55.668Z,5.35
2018-11-20T10:56:43.312Z,5.35
2018-11-20T10:59:35.203Z,5.37
2018-11-20T11:04:55.028Z,5.36
2018-11-20T11:07:46.707Z,5.39
2018-11-20T11:13:07.817Z,5.40
2018-11-20T11:16:05.272Z,5.44
2018-11-20T11:21:25.119Z,5.57
2018-11-20T11:28:30.456Z,5.69
2018-11-20T11:31:16.015Z,5.64
2018-11-20T11:34:14.998Z,5.77
2018-11-20T11:37:13.713Z,5.77
2018-11-20T11:40:06.758Z,5.87
2018-11-20T11:42:53.636Z,5.93
2018-11-20T11:45:43.441Z,6.02
2018-11-20T11:48:29.039Z,6.16
2018-11-20T11:51:09.983Z,6.23
2018-11-20T11:53:43.971Z,6.43
2018-11-20T11:56:24.345Z,6.38
2018-11-20T11:59:10.378Z,6.57
2018-11-20T12:04:39.277Z,6.56
2018-11-20T12:07:24.356Z,6.44
2018-11-20T12:10:15.207Z,6.40
2018-11-20T12:13:01.295Z,6.39
2018-11-20T12:16:00.046Z,6.28
2018-11-20T12:18:45.882Z,6.28
2018-11-20T12:21:36.758Z,6.27
2018-11-20T12:24:27.304Z,6.25
2018-11-20T12:27:04.435Z,6.23
2018-11-20T12:29:40.092Z,6.12
2018-11-20T12:32:26.643Z,6.08
2018-11-20T12:35:33.077Z,6.08
2018-11-20T12:38:08.673Z,5.99
2018-11-20T12:40:55.918Z,6.03
2018-11-20T12:43:35.636Z,5.98
2018-11-20T12:46:19.648Z,5.99
2018-11-20T12:49:05.357Z,5.92
2018-11-20T12:51:51.302Z,5.92
2018-11-20T12:54:41.098Z,5.81
2018-11-20T12:57:40.298Z,5.74
2018-11-20T13:00:35.112Z,5.78
2018-11-20T13:03:30.832Z,5.61
2018-11-20T13:06:35.371Z,5.65
2018-11-20T13:09:15.887Z,5.69
2018-11-20T13:11:52.867Z,5.74
2018-11-20T13:14:46.117Z,5.75
2018-11-20T13:17:33.665Z,5.83
2018-11-20T13:20:29.670Z,5.78
2018-11-20T13:23:25.569Z,5.73
2018-11-20T13:26:08.953Z,5.79
2018-11-20T13:29:11.251Z,5.70
2018-11-20T13:32:10.101Z,5.62
2018-11-20T13:34:57.701Z,5.55
2018-11-20T13:37:35.625Z,5.53
2018-11-20T13:40:14.640Z,5.45
2018-11-20T13:43:15.832Z,5.40
2018-11-20T13:46:01.988Z,5.41
2018-11-20T13:48:40.815Z,5.30
2018-11-20T13:51:27.510Z,5.24
2018-11-20T13:54:17.404Z,5.27
2018-11-20T13:57:16.546Z,5.29
2018-11-20T14:00:01.381Z,5.23
2018-11-20T14:02:39.415Z,5.32
2018-11-20T14:05:44.415Z,5.09
2018-11-20T14:08:23.138Z,5.02
2018-11-20T14:11:10.111Z,4.90
2018-11-20T14:13:48.599Z,4.98
2018-11-20T14:16:34.123Z,5.00
2018-11-20T14:19:20.099Z,4.97
2018-11-20T14:22:06.408Z,4.94
2018-11-20T14:25:05.882Z,4.97
2018-11-20T14:27:57.212Z,4.90
2018-11-20T14:30:45.901Z,4.79
2018-11-20T14:33:45.359Z,4.82
2018-11-20T14:36:51.607Z,4.80
2018-11-20T14:39:48.058Z,4.79
2018-11-20T14:42:35.002Z,4.76
2018-11-20T14:45:25.060Z,4.69
2018-11-20T14:48:14.619Z,4.66
2018-11-20T14:51:04.528Z,4.73
2018-11-20T14:53:47.808Z,4.63
2018-11-20T14:56:22.184Z,4.55
2018-11-20T14:59:15.282Z,4.58
2018-11-20T15:02:01.469Z,4.57
2018-11-20T15:04:49.887Z,4.68
2018-11-20T15:07:45.186Z,4.60
2018-11-20T15:10:20.233Z,4.60
2018-11-20T15:13:07.417Z,4.53
2018-11-20T15:15:53.472Z,4.59
2018-11-20T15:18:47.080Z,4.51
2018-11-20T15:21:52.093Z,4.57
2018-11-20T15:24:48.178Z,4.52
2018-11-20T15:27:34.210Z,4.52
2018-11-20T15:30:30.720Z,4.57
2018-11-20T15:33:09.061Z,4.59
2018-11-20T15:35:59.131Z,4.55
2018-11-20T15:38:44.837Z,4.63
2018-11-20T15:41:31.994Z,4.55
2018-11-20T15:44:28.789Z,4.59
2018-11-20T15:47:06.846Z,4.50
2018-11-20T15:49:53.019Z,4.50
2018-11-20T15:52:39.654Z,4.50
2018-11-20T15:55:29.512Z,4.51
2018-11-20T15:58:22.838Z,4.55
2018-11-20T16:01:23.198Z,4.54
2018-11-20T16:04:05.210Z,4.55
2018-11-20T16:06:51.045Z,4.51
2018-11-20T16:09:36.743Z,4.48
2018-11-20T16:12:24.089Z,4.43
2018-11-20T16:15:13.920Z,4.50
2018-11-20T16:17:58.785Z,4.51
2018-11-20T16:20:56.058Z,4.54
2018-11-20T16:23:55.881Z,4.47
2018-11-20T16:26:58.244Z,4.60
2018-11-20T16:29:43.672Z,4.52
2018-11-20T16:32:43.231Z,4.46
2018-11-20T16:35:30.557Z,4.61
2018-11-20T16:38:33.188Z,4.54
2018-11-20T16:41:19.199Z,4.47
2018-11-20T16:44:12.301Z,4.49
2018-11-20T16:46:57.950Z,4.54
2018-11-20T16:49:43.689Z,4.52
2018-11-20T16:52:33.596Z,4.44
2018-11-20T16:55:19.570Z,4.43
2018-11-20T16:58:08.218Z,4.46
2018-11-20T17:00:55.124Z,4.44
2018-11-20T17:03:42.197Z,4.43
2018-11-20T17:06:35.564Z,4.41
2018-11-20T17:09:29.558Z,4.38
2018-11-20T17:12:05.838Z,4.35
2018-11-20T17:14:51.811Z,4.39
2018-11-20T17:17:38.459Z,4.38
2018-11-20T17:20:27.496Z,4.33
2018-11-20T17:23:29.690Z,4.33
2018-11-20T17:26:13.060Z,4.32
2018-11-20T17:28:58.466Z,4.36
2018-11-20T17:31:40.199Z,4.43
2018-11-20T17:34:45.527Z,4.39
2018-11-20T17:37:44.795Z,4.39
2018-11-20T17:40:34.378Z,4.39
2018-11-20T17:43:10.775Z,4.39
2018-11-20T17:45:56.889Z,4.43
2018-11-20T17:48:42.929Z,4.40
2018-11-20T17:51:28.687Z,4.48
2018-11-20T17:54:22.366Z,4.43
2018-11-20T17:57:08.403Z,4.49
2018-11-20T17:59:43.094Z,4.47
2018-11-20T18:02:33.070Z,4.47
2018-11-20T18:05:18.776Z,4.44
2018-11-20T18:08:10.146Z,4.37
2018-11-20T18:10:53.415Z,4.41
2018-11-20T18:13:37.722Z,4.43
2018-11-20T18:16:39.806Z,4.37
2018-11-20T18:19:25.351Z,4.32
2018-11-20T18:22:24.447Z,4.39
2018-11-20T18:25:10.590Z,4.42
2018-11-20T18:27:57.447Z,4.37
2018-11-20T18:30:47.482Z,4.32
2018-11-20T18:33:29.802Z,4.33
2018-11-20T18:36:16.148Z,4.37
2018-11-20T18:39:03.500Z,4.46
2018-11-20T18:41:50.137Z,4.37
2018-11-20T18:44:37.061Z,4.37
2018-11-20T18:47:23.174Z,4.36
2018-11-20T18:50:10.427Z,4.37
2018-11-20T18:52:53.467Z,4.35
2018-11-20T18:55:49.549Z,4.29
2018-11-20T18:58:35.625Z,4.39
2018-11-20T19:01:17.763Z,4.43
2018-11-20T19:04:03.448Z,4.43
2018-11-20T19:06:43.995Z,4.43
2018-11-20T19:09:29.726Z,4.49
2018-11-20T19:12:28.221Z,4.42
2018-11-20T19:15:14.180Z,4.47
2018-11-20T19:18:00.429Z,4.43
2018-11-20T19:20:46.201Z,4.46
2018-11-20T19:23:32.014Z,4.45
2018-11-20T19:26:18.229Z,4.41
2018-11-20T19:29:08.073Z,4.45
2018-11-20T19:32:10.573Z,4.43
2018-11-20T19:35:06.852Z,4.42
2018-11-20T19:37:52.396Z,4.52
2018-11-20T19:40:46.566Z,4.42
2018-11-20T19:43:32.494Z,4.39
2018-11-20T19:46:37.797Z,4.50
2018-11-20T19:49:27.390Z,4.43
2018-11-20T19:52:08.109Z,4.41
2018-11-20T19:54:58.010Z,4.43
2018-11-20T19:58:03.177Z,4.42
2018-11-20T20:00:45.215Z,4.46
2018-11-20T20:03:31.193Z,4.44
2018-11-20T20:06:17.408Z,4.38
2018-11-20T20:09:10.551Z,4.41
2018-11-20T20:11:56.729Z,4.42
2018-11-20T20:14:31.586Z,4.41
2018-11-20T20:17:27.850Z,4.40
2018-11-20T20:20:11.621Z,4.35
2018-11-20T20:22:57.153Z,4.41
2018-11-20T20:25:50.757Z,4.44
2018-11-20T20:28:37.408Z,4.31
2018-11-20T20:31:32.502Z,4.35
2018-11-20T20:34:31.961Z,4.34
2018-11-20T20:37:17.934Z,4.26
2018-11-20T20:40:12.811Z,4.28
2018-11-20T20:42:52.642Z,4.21
2018-11-20T20:45:39.611Z,4.16
2018-11-20T20:48:38.890Z,4.25
2018-11-20T20:51:24.642Z,4.27
2018-11-20T20:54:12.311Z,4.26
2018-11-20T20:56:45.341Z,4.22
2018-11-20T20:59:35.031Z,4.25
2018-11-20T21:02:13.741Z,4.17
2018-11-20T21:05:06.789Z,4.20
2018-11-20T21:07:57.513Z,4.21
2018-11-20T21:10:59.761Z,4.26
2018-11-20T21:13:49.792Z,4.20
2018-11-20T21:16:51.714Z,4.14
2018-11-20T21:19:52.828Z,4.09
2018-11-20T21:22:39.476Z,4.14
2018-11-20T21:25:26.957Z,4.16
2018-11-20T21:28:19.866Z,4.07
2018-11-20T21:31:02.963Z,4.11
2018-11-20T21:33:44.386Z,4.01
2018-11-20T21:36:28.674Z,4.07
2018-11-20T21:39:29.229Z,3.96
2018-11-20T21:42:17.431Z,3.89
2018-11-20T21:45:17.103Z,3.71
2018-11-20T21:48:09.902Z,3.73
2018-11-20T21:50:57.142Z,3.61
2018-11-20T21:53:43.285Z,3.49
2018-11-20T21:56:26.913Z,3.41
2018-11-20T21:59:15.267Z,3.36
2018-11-20T22:02:14.938Z,3.27
2018-11-20T22:04:53.999Z,3.22
2018-11-20T22:07:40.912Z,3.15
2018-11-20T22:10:27.145Z,3.10
2018-11-20T22:13:16.918Z,3.07
2018-11-20T22:16:02.366Z,3.00
2018-11-20T22:18:48.238Z,3.11
2018-11-20T22:21:39.105Z,3.04
2018-11-20T22:24:28.453Z,3.09
2018-11-20T22:27:11.355Z,3.15
2018-11-20T22:29:58.490Z,3.10
2018-11-20T22:32:44.126Z,3.10
2018-11-20T22:35:33.984Z,3.06
2018-11-20T22:38:29.707Z,3.15
2018-11-20T22:41:19.425Z,3.24
2018-11-20T22:44:08.987Z,3.13
2018-11-20T22:46:51.543Z,3.12
2018-11-20T22:49:32.157Z,3.11
2018-11-20T22:52:16.181Z,3.13
2018-11-20T22:55:09.014Z,3.01
2018-11-20T22:58:08.994Z,2.96
2018-11-20T23:00:54.204Z,2.86
2018-11-20T23:03:59.485Z,2.81
2018-11-20T23:06:45.268Z,2.77
2018-11-20T23:09:12.864Z,2.78
2018-11-20T23:11:40.233Z,2.68
2018-11-20T23:14:07.767Z,2.69
2018-11-20T23:16:35.021Z,2.56
2018-11-20T23:19:02.246Z,2.53
2018-11-20T23:21:29.712Z,2.42
2018-11-20T23:23:56.954Z,2.47
2018-11-20T23:26:24.487Z,2.32
2018-11-20T23:28:51.998Z,2.26
2018-11-20T23:31:20.164Z,2.16
2018-11-20T23:33:48.237Z,2.19
2018-11-20T23:36:15.792Z,2.15
2018-11-20T23:38:43.854Z,2.31
2018-11-20T23:41:11.495Z,2.30
2018-11-20T23:43:38.753Z,2.30
2018-11-20T23:46:06.776Z,2.31
2018-11-20T23:48:34.126Z,2.34
2018-11-20T23:51:01.510Z,2.29
2018-11-20T23:53:29.400Z,2.37
2018-11-20T23:55:56.707Z,2.38
2018-11-20T23:58:23.938Z,2.31
